Aviation Digital Data Service (ADDS)

Output produced by METARs form (1827 UTC 16 August 2018)
found at http://www.aviationweather.gov/adds/metars/
 
UGKO 161800Z VRB01KT 9999 SCT040 23/21 Q1011 NOSIG
TAF UGKO 161700Z 1618/1718 VRB02KT 9999 SCT045 TX30/1711Z TN19/1702Z 
     TEMPO 1708/1716 26014KT SCT040TCU
       
UGSB 161800Z 14005KT 9999 FEW040 22/21 Q1011 NOSIG
TAF UGSB 161700Z 1618/1718 13012KT 9999 FEW030 SCT100 TX28/1711Z TN22/1702Z 
     BECMG 1705/1707 25007KT
       
UGTB 161800Z 04007KT 020V090 CAVOK 24/15 Q1016 NOSIG
TAF UGTB 161700Z 1618/1718 VRB02KT CAVOK TX30/1711Z TN19/1702Z 
     BECMG 1619/1620 SCT050CB 
     TEMPO 1710/1716 12012KT